createdAt,value
2022-08-24T00:01:27.793Z,2.15
2022-08-24T00:03:57.717Z,2.97
2022-08-24T00:06:28.542Z,2.40
2022-08-24T00:08:57.176Z,2.30
2022-08-24T00:11:24.976Z,2.40
2022-08-24T00:13:52.755Z,2.10
2022-08-24T00:16:20.634Z,2.40
2022-08-24T00:18:48.548Z,2.10
2022-08-24T00:21:16.405Z,2.00
2022-08-24T00:23:43.720Z,2.83
2022-08-24T00:26:11.322Z,2.20
2022-08-24T00:28:38.626Z,2.15
2022-08-24T00:31:08.304Z,2.45
2022-08-24T00:33:36.435Z,2.33
2022-08-24T00:36:04.973Z,1.92
2022-08-24T00:38:33.785Z,2.40
2022-08-24T00:41:02.021Z,2.30
2022-08-24T00:43:29.449Z,2.38
2022-08-24T00:46:15.832Z,2.53
2022-08-24T00:48:46.281Z,2.58
2022-08-24T00:51:19.119Z,2.47
2022-08-24T00:53:50.651Z,2.35
2022-08-24T00:56:22.021Z,2.28
2022-08-24T00:58:56.083Z,2.40
2022-08-24T01:01:26.003Z,2.47
2022-08-24T01:03:56.838Z,2.58
2022-08-24T01:06:25.020Z,2.30
2022-08-24T01:08:56.648Z,2.42
2022-08-24T01:11:27.497Z,2.45
2022-08-24T01:14:00.288Z,2.17
2022-08-24T01:16:46.091Z,2.30
2022-08-24T01:19:37.203Z,2.30
2022-08-24T01:22:42.909Z,2.40
2022-08-24T01:25:10.433Z,2.72
2022-08-24T01:27:38.151Z,2.10
2022-08-24T01:30:09.450Z,2.20
2022-08-24T01:32:38.893Z,2.40
2022-08-24T01:35:06.981Z,2.47
2022-08-24T01:37:34.877Z,1.90
2022-08-24T01:40:06.346Z,2.20
2022-08-24T01:42:34.934Z,2.35
2022-08-24T01:45:04.063Z,1.98
2022-08-24T01:47:31.427Z,2.43
2022-08-24T01:49:58.719Z,1.77
2022-08-24T01:52:29.735Z,2.20
2022-08-24T01:55:06.660Z,2.17
2022-08-24T01:57:33.882Z,2.00
2022-08-24T02:00:04.317Z,2.30
2022-08-24T02:02:41.478Z,2.40
2022-08-24T02:05:10.982Z,2.40
2022-08-24T02:07:39.133Z,2.42
2022-08-24T02:10:08.698Z,2.47
2022-08-24T02:12:36.778Z,2.28
2022-08-24T02:15:07.826Z,2.25
2022-08-24T02:17:36.253Z,2.25
2022-08-24T02:20:05.376Z,2.78
2022-08-24T02:22:32.927Z,2.53
2022-08-24T02:25:00.198Z,2.25
2022-08-24T02:27:27.505Z,2.25
2022-08-24T02:29:54.799Z,2.17
2022-08-24T02:32:22.068Z,2.50
2022-08-24T02:34:49.837Z,2.35
2022-08-24T02:37:21.884Z,2.47
2022-08-24T02:39:49.516Z,2.35
2022-08-24T02:42:19.007Z,2.17
2022-08-24T02:44:46.392Z,2.60
2022-08-24T02:47:17.949Z,2.10
2022-08-24T02:49:45.569Z,2.30
2022-08-24T02:52:13.109Z,2.22
2022-08-24T02:54:40.449Z,2.42
2022-08-24T02:57:08.087Z,2.25
2022-08-24T02:59:35.469Z,2.03
2022-08-24T03:02:04.175Z,2.15
2022-08-24T03:04:31.662Z,2.30
2022-08-24T03:06:59.628Z,2.13
2022-08-24T03:09:28.844Z,2.30
2022-08-24T03:11:58.256Z,2.78
2022-08-24T03:14:25.944Z,2.30
2022-08-24T03:16:53.835Z,2.28
2022-08-24T03:19:22.237Z,2.35
2022-08-24T03:21:49.503Z,2.78
2022-08-24T03:24:17.253Z,2.85
2022-08-24T03:26:45.328Z,2.80
2022-08-24T03:29:15.822Z,2.50
2022-08-24T03:31:44.197Z,2.60
2022-08-24T03:34:19.824Z,2.53
2022-08-24T03:36:48.747Z,2.58
2022-08-24T03:39:17.239Z,2.60
2022-08-24T03:41:45.271Z,2.63
2022-08-24T03:44:12.737Z,2.40
2022-08-24T03:46:40.142Z,2.95
2022-08-24T03:49:09.942Z,3.35
2022-08-24T03:51:38.371Z,2.67
2022-08-24T03:54:09.350Z,2.58
2022-08-24T03:56:37.017Z,3.00
2022-08-24T03:59:05.223Z,2.80
2022-08-24T04:01:38.864Z,2.83
2022-08-24T04:04:06.387Z,2.67
2022-08-24T04:09:04.716Z,2.55
2022-08-24T04:11:39.410Z,2.63
2022-08-24T04:14:08.831Z,2.60
2022-08-24T04:16:58.616Z,2.50
2022-08-24T04:19:32.201Z,2.67
2022-08-24T04:21:59.580Z,2.67
2022-08-24T04:24:27.080Z,3.00
2022-08-24T04:26:54.563Z,2.60
2022-08-24T04:29:21.847Z,2.50
2022-08-24T04:31:52.488Z,3.20
2022-08-24T04:34:20.830Z,3.03
2022-08-24T04:36:49.191Z,2.90
2022-08-24T04:39:16.620Z,2.95
2022-08-24T04:41:50.604Z,2.78
2022-08-24T04:44:19.724Z,3.17
2022-08-24T04:46:47.490Z,3.30
2022-08-24T04:49:14.735Z,3.30
2022-08-24T04:51:42.026Z,3.58
2022-08-24T04:54:09.507Z,3.15
2022-08-24T04:56:38.061Z,3.28
2022-08-24T04:59:05.977Z,3.13
2022-08-24T05:01:34.648Z,2.90
2022-08-24T05:04:04.913Z,3.00
2022-08-24T05:06:32.870Z,3.30
2022-08-24T05:09:02.124Z,2.92
2022-08-24T05:11:31.140Z,3.70
2022-08-24T05:13:59.339Z,3.80
2022-08-24T05:16:27.993Z,3.55
2022-08-24T05:18:56.585Z,3.50
2022-08-24T05:21:26.386Z,4.20
2022-08-24T05:23:56.148Z,3.90
2022-08-24T05:26:28.102Z,3.75
2022-08-24T05:28:57.904Z,3.83
2022-08-24T05:31:29.732Z,3.78
2022-08-24T05:34:00.485Z,4.07
2022-08-24T05:36:30.265Z,4.78
2022-08-24T05:39:00.877Z,3.97
2022-08-24T05:41:28.831Z,3.83
2022-08-24T05:44:06.727Z,3.85
2022-08-24T05:46:35.333Z,3.75
2022-08-24T05:49:02.779Z,3.55
2022-08-24T05:51:32.148Z,3.90
2022-08-24T05:54:09.579Z,3.60
2022-08-24T05:56:48.535Z,4.10
2022-08-24T05:59:18.031Z,4.47
2022-08-24T06:04:14.436Z,4.45
2022-08-24T06:06:42.776Z,4.78
2022-08-24T06:09:11.613Z,4.53
2022-08-24T06:11:40.345Z,4.10
2022-08-24T06:14:14.224Z,3.97
2022-08-24T06:16:52.831Z,4.70
2022-08-24T06:19:21.384Z,4.18
2022-08-24T06:21:51.253Z,4.28
2022-08-24T06:27:06.100Z,4.47
2022-08-24T06:29:34.078Z,4.10
2022-08-24T06:32:17.984Z,4.13
2022-08-24T06:34:45.341Z,4.82
2022-08-24T06:37:13.684Z,5.20
2022-08-24T06:39:42.034Z,5.90
2022-08-24T06:42:11.039Z,5.25
2022-08-24T06:44:44.180Z,11.15
2022-08-24T06:47:19.896Z,15.45
2022-08-24T06:49:49.381Z,7.75
2022-08-24T06:52:16.674Z,9.55
2022-08-24T06:54:44.127Z,4.95
2022-08-24T06:57:11.499Z,4.93
2022-08-24T06:59:40.308Z,6.55
2022-08-24T07:02:09.302Z,5.45
2022-08-24T07:04:38.560Z,10.48
2022-08-24T07:07:24.580Z,7.20
2022-08-24T07:09:51.897Z,4.90
2022-08-24T07:12:19.480Z,6.35
2022-08-24T07:14:47.046Z,5.97
2022-08-24T07:17:14.334Z,6.00
2022-08-24T07:19:42.822Z,4.78
2022-08-24T07:22:10.401Z,4.50
2022-08-24T07:24:37.942Z,4.72
2022-08-24T07:27:06.684Z,8.57
2022-08-24T07:29:50.468Z,10.15
2022-08-24T07:32:20.733Z,10.55
2022-08-24T07:34:50.215Z,8.77
2022-08-24T07:37:17.813Z,4.63
2022-08-24T07:39:48.545Z,6.13
2022-08-24T07:42:26.522Z,7.72
2022-08-24T07:44:59.565Z,3.70
2022-08-24T07:47:38.132Z,2.90
2022-08-24T07:50:17.323Z,3.70
2022-08-24T07:52:45.541Z,2.35
2022-08-24T07:55:14.116Z,3.88
2022-08-24T07:57:42.228Z,2.97
2022-08-24T08:00:12.670Z,2.83
2022-08-24T08:02:47.348Z,2.63
2022-08-24T08:05:19.294Z,2.83
2022-08-24T08:07:52.118Z,2.95
2022-08-24T08:10:20.348Z,2.50
2022-08-24T08:12:47.776Z,3.10
2022-08-24T08:15:15.299Z,5.45
2022-08-24T08:18:03.011Z,2.92
2022-08-24T08:20:31.438Z,2.88
2022-08-24T08:23:17.688Z,2.90
2022-08-24T08:26:01.910Z,3.45
2022-08-24T08:28:43.494Z,2.60
2022-08-24T08:31:10.932Z,2.33
2022-08-24T08:33:40.240Z,2.35
2022-08-24T08:36:15.031Z,2.65
2022-08-24T08:38:50.418Z,2.28
2022-08-24T08:41:42.275Z,1.92
2022-08-24T08:44:35.708Z,2.05
2022-08-24T08:47:21.905Z,2.30
2022-08-24T08:50:39.915Z,1.90
2022-08-24T08:53:50.457Z,1.52
2022-08-24T08:56:28.936Z,3.25
2022-08-24T08:59:21.992Z,3.97
2022-08-24T09:02:25.148Z,2.13
2022-08-24T09:05:23.158Z,3.05
2022-08-24T09:07:56.761Z,3.05
2022-08-24T09:11:01.937Z,3.03
2022-08-24T09:14:09.903Z,6.20
2022-08-24T09:16:49.195Z,3.28
2022-08-24T09:19:31.871Z,2.28
2022-08-24T09:22:07.126Z,1.92
2022-08-24T09:24:52.730Z,3.35
2022-08-24T09:28:01.561Z,3.85
2022-08-24T09:30:44.803Z,2.40
2022-08-24T09:33:20.780Z,1.77
2022-08-24T09:36:08.222Z,1.83
2022-08-24T09:38:58.968Z,1.80
2022-08-24T09:41:43.802Z,1.67
2022-08-24T09:44:22.051Z,1.63
2022-08-24T09:46:59.069Z,1.10
2022-08-24T09:49:48.530Z,1.10
2022-08-24T09:52:34.672Z,0.80
2022-08-24T09:55:30.167Z,1.00
2022-08-24T09:58:01.608Z,0.70
2022-08-24T10:01:08.899Z,1.40
2022-08-24T10:04:00.514Z,1.25
2022-08-24T10:06:58.010Z,1.63
2022-08-24T10:09:41.079Z,1.60
2022-08-24T10:12:17.273Z,0.93
2022-08-24T10:14:53.651Z,0.90
2022-08-24T10:17:49.892Z,5.05
2022-08-24T10:20:23.929Z,1.33
2022-08-24T10:23:28.121Z,1.40
2022-08-24T10:26:54.610Z,1.70
2022-08-24T10:29:24.836Z,1.23
2022-08-24T10:32:25.745Z,1.20
2022-08-24T10:35:06.658Z,1.52
2022-08-24T10:38:17.481Z,1.48
2022-08-24T10:41:13.565Z,1.10
2022-08-24T10:44:00.528Z,1.00
2022-08-24T10:46:49.745Z,1.00
2022-08-24T10:49:32.243Z,6.50
2022-08-24T10:52:38.078Z,2.90
2022-08-24T10:55:19.624Z,1.92
2022-08-24T10:58:14.776Z,1.60
2022-08-24T11:00:43.068Z,1.63
2022-08-24T11:03:18.522Z,1.50
2022-08-24T11:05:49.568Z,1.20
2022-08-24T11:08:28.351Z,1.02
2022-08-24T11:11:10.704Z,5.63
2022-08-24T11:14:03.848Z,2.28
2022-08-24T11:16:40.931Z,1.95
2022-08-24T11:19:11.223Z,1.20
2022-08-24T11:21:49.799Z,2.10
2022-08-24T11:24:23.942Z,1.48
2022-08-24T11:26:56.044Z,1.15
2022-08-24T11:29:31.617Z,1.30
2022-08-24T11:31:59.537Z,1.40
2022-08-24T11:34:34.694Z,2.05
2022-08-24T11:37:05.762Z,1.92
2022-08-24T11:39:38.684Z,1.40
2022-08-24T11:42:33.521Z,1.30
2022-08-24T11:45:10.603Z,1.10
2022-08-24T11:47:56.328Z,1.50
2022-08-24T11:50:33.760Z,1.00
2022-08-24T11:53:12.041Z,0.88
2022-08-24T11:55:51.971Z,1.60
2022-08-24T11:58:34.801Z,1.10
2022-08-24T12:01:07.497Z,1.60
2022-08-24T12:03:53.470Z,1.20
2022-08-24T12:06:31.455Z,1.50
2022-08-24T12:09:36.993Z,1.98
2022-08-24T12:12:19.718Z,2.45
2022-08-24T12:15:12.235Z,1.10
2022-08-24T12:17:54.469Z,1.58
2022-08-24T12:20:36.466Z,0.80
2022-08-24T12:23:11.564Z,0.70
2022-08-24T12:25:57.395Z,0.88
2022-08-24T12:28:29.870Z,0.88
2022-08-24T12:30:59.968Z,4.15
2022-08-24T12:33:33.172Z,1.20
2022-08-24T12:36:14.552Z,1.73
2022-08-24T12:38:49.635Z,2.25
2022-08-24T12:41:19.856Z,0.80
2022-08-24T12:43:50.076Z,1.25
2022-08-24T12:46:21.784Z,1.27
2022-08-24T12:48:56.185Z,0.75
2022-08-24T12:51:38.830Z,0.70
2022-08-24T12:54:16.645Z,0.70
2022-08-24T12:57:13.190Z,0.90
2022-08-24T12:59:49.007Z,0.75
2022-08-24T13:02:19.289Z,5.35
2022-08-24T13:04:49.361Z,1.42
2022-08-24T13:07:19.268Z,0.93
2022-08-24T13:12:38.959Z,1.17
2022-08-24T13:15:30.679Z,0.68
2022-08-24T13:18:20.919Z,0.73
2022-08-24T13:20:48.118Z,0.73
2022-08-24T13:23:19.001Z,0.93
2022-08-24T13:26:14.347Z,6.25
2022-08-24T13:28:48.078Z,0.82
2022-08-24T13:31:28.207Z,4.97
2022-08-24T13:34:09.434Z,3.97
2022-08-24T13:36:49.998Z,1.10
2022-08-24T13:39:26.441Z,0.98
2022-08-24T13:42:03.747Z,1.50
2022-08-24T13:44:34.507Z,0.82
2022-08-24T13:47:09.608Z,0.70
2022-08-24T13:49:53.247Z,0.80
2022-08-24T13:52:48.656Z,0.52
2022-08-24T13:55:29.691Z,0.52
2022-08-24T13:58:31.036Z,0.60
2022-08-24T14:01:35.944Z,1.17
2022-08-24T14:04:24.973Z,1.10
2022-08-24T14:07:00.992Z,0.90
2022-08-24T14:09:38.231Z,1.95
2022-08-24T14:12:43.936Z,1.02
2022-08-24T14:15:25.927Z,1.30
2022-08-24T14:18:09.600Z,3.70
2022-08-24T14:21:12.845Z,0.90
2022-08-24T14:24:02.956Z,0.90
2022-08-24T14:26:42.111Z,0.80
2022-08-24T14:29:15.265Z,0.55
2022-08-24T14:32:12.454Z,1.10
2022-08-24T14:34:41.070Z,0.90
2022-08-24T14:37:32.907Z,0.45
2022-08-24T14:40:03.316Z,0.70
2022-08-24T14:42:45.935Z,0.63
2022-08-24T14:45:34.595Z,0.52
2022-08-24T14:48:13.510Z,1.02
2022-08-24T14:50:48.811Z,2.13
2022-08-24T14:53:31.213Z,1.00
2022-08-24T14:56:25.034Z,1.05
2022-08-24T14:59:28.129Z,1.20
2022-08-24T15:02:29.570Z,4.15
2022-08-24T15:05:22.301Z,1.33
2022-08-24T15:08:11.770Z,1.10
2022-08-24T15:10:54.707Z,0.85
2022-08-24T15:13:28.277Z,8.13
2022-08-24T15:16:01.945Z,3.08
2022-08-24T15:18:37.256Z,1.60
2022-08-24T15:21:32.518Z,2.88
2022-08-24T15:24:10.153Z,1.23
2022-08-24T15:26:52.870Z,2.22
2022-08-24T15:29:25.962Z,1.40
2022-08-24T15:32:01.997Z,1.95
2022-08-24T15:34:48.729Z,3.83
2022-08-24T15:37:30.770Z,0.90
2022-08-24T15:39:59.121Z,0.60
2022-08-24T15:42:29.550Z,0.70
2022-08-24T15:45:00.510Z,0.70
2022-08-24T15:47:32.262Z,1.55
2022-08-24T15:50:24.047Z,1.08
2022-08-24T15:53:08.331Z,0.75
2022-08-24T15:55:38.706Z,1.02
2022-08-24T15:58:26.673Z,0.73
2022-08-24T16:01:37.971Z,0.70
2022-08-24T16:04:40.391Z,0.60
2022-08-24T16:07:07.805Z,0.60
2022-08-24T16:09:37.550Z,0.60
2022-08-24T16:12:16.569Z,0.60
2022-08-24T16:14:46.933Z,0.82
2022-08-24T16:17:34.105Z,0.90
2022-08-24T16:20:06.485Z,0.90
2022-08-24T16:22:39.531Z,0.80
2022-08-24T16:25:09.547Z,1.05
2022-08-24T16:28:02.330Z,0.75
2022-08-24T16:30:49.865Z,0.68
2022-08-24T16:33:33.191Z,1.30
2022-08-24T16:36:06.725Z,2.65
2022-08-24T16:38:35.591Z,0.73
2022-08-24T16:41:06.504Z,1.02
2022-08-24T16:43:39.498Z,1.15
2022-08-24T16:46:08.491Z,1.40
2022-08-24T16:48:36.052Z,1.10
2022-08-24T16:51:04.538Z,1.23
2022-08-24T16:53:31.796Z,0.95
2022-08-24T16:55:59.462Z,1.90
2022-08-24T16:58:31.345Z,1.48
2022-08-24T17:00:59.147Z,8.10
2022-08-24T17:03:26.602Z,1.40
2022-08-24T17:05:55.478Z,2.50
2022-08-24T17:08:22.798Z,1.98
2022-08-24T17:10:50.291Z,1.55
2022-08-24T17:13:45.839Z,1.45
2022-08-24T17:16:04.953Z,1.38
2022-08-24T17:18:34.459Z,1.60
2022-08-24T17:21:01.745Z,1.40
2022-08-24T17:23:29.435Z,1.65
2022-08-24T17:25:56.715Z,1.67
2022-08-24T17:28:24.095Z,1.67
2022-08-24T17:30:51.738Z,1.48
2022-08-24T17:33:19.693Z,2.08
2022-08-24T17:35:47.034Z,2.28
2022-08-24T17:38:14.486Z,1.95
2022-08-24T17:40:41.731Z,1.73
2022-08-24T17:43:09.168Z,1.60
2022-08-24T17:45:36.461Z,1.85
2022-08-24T17:48:04.114Z,1.80
2022-08-24T17:50:32.083Z,1.85
2022-08-24T17:53:00.466Z,1.50
2022-08-24T17:55:28.307Z,1.67
2022-08-24T17:57:55.874Z,1.95
2022-08-24T18:00:23.254Z,1.77
2022-08-24T18:02:50.573Z,1.90
2022-08-24T18:05:18.467Z,1.60
2022-08-24T18:07:53.926Z,1.95
2022-08-24T18:10:25.901Z,2.00
2022-08-24T18:12:53.565Z,1.70
2022-08-24T18:15:21.145Z,1.90
2022-08-24T18:17:51.520Z,1.70
2022-08-24T18:20:25.878Z,1.75
2022-08-24T18:22:53.863Z,1.75
2022-08-24T18:25:23.227Z,1.60
2022-08-24T18:27:52.381Z,2.53
2022-08-24T18:30:23.212Z,1.95
2022-08-24T18:32:56.486Z,2.03
2022-08-24T18:35:23.844Z,1.90
2022-08-24T18:37:51.110Z,2.20
2022-08-24T18:40:21.069Z,2.00
2022-08-24T18:42:50.669Z,2.10
2022-08-24T18:45:18.507Z,2.20
2022-08-24T18:47:52.985Z,2.03
2022-08-24T18:50:21.373Z,2.53
2022-08-24T18:52:48.781Z,2.00
2022-08-24T18:55:16.868Z,2.63
2022-08-24T18:57:44.661Z,2.05
2022-08-24T19:00:12.896Z,2.50
2022-08-24T19:02:40.716Z,2.20
2022-08-24T19:05:14.738Z,2.33
2022-08-24T19:07:45.182Z,2.60
2022-08-24T19:10:15.074Z,3.17
2022-08-24T19:15:30.894Z,2.50
2022-08-24T19:18:05.429Z,2.72
2022-08-24T19:20:35.167Z,2.65
2022-08-24T19:23:08.863Z,2.67
2022-08-24T19:25:37.311Z,2.85
2022-08-24T19:28:05.218Z,2.55
2022-08-24T19:30:32.651Z,3.05
2022-08-24T19:33:00.821Z,2.60
2022-08-24T19:35:29.912Z,2.97
2022-08-24T19:37:57.198Z,3.17
2022-08-24T19:40:24.582Z,2.75
2022-08-24T19:42:53.708Z,3.10
2022-08-24T19:45:43.629Z,2.70
2022-08-24T19:48:12.418Z,3.27
2022-08-24T19:50:40.089Z,3.35
2022-08-24T19:53:07.732Z,3.20
2022-08-24T19:55:34.899Z,3.47
2022-08-24T19:58:20.001Z,4.03
2022-08-24T20:01:02.285Z,4.43
2022-08-24T20:03:29.554Z,6.38
2022-08-24T20:05:57.211Z,3.63
2022-08-24T20:08:24.666Z,3.50
2022-08-24T20:10:55.966Z,3.63
2022-08-24T20:13:23.219Z,3.70
2022-08-24T20:15:50.622Z,3.50
2022-08-24T20:18:18.125Z,3.70
2022-08-24T20:20:46.444Z,3.65
2022-08-24T20:23:16.656Z,3.25
2022-08-24T20:25:44.025Z,3.90
2022-08-24T20:28:32.642Z,3.75
2022-08-24T20:31:02.099Z,3.80
2022-08-24T20:33:29.406Z,3.63
2022-08-24T20:35:56.802Z,3.63
2022-08-24T20:38:24.606Z,4.00
2022-08-24T20:40:52.526Z,4.18
2022-08-24T20:43:20.291Z,12.85
2022-08-24T20:45:50.674Z,12.65
2022-08-24T20:48:26.143Z,5.85
2022-08-24T20:50:53.643Z,4.45
2022-08-24T20:53:20.866Z,4.75
2022-08-24T20:55:48.534Z,5.05
2022-08-24T20:58:17.896Z,5.30
2022-08-24T21:00:46.026Z,5.30
2022-08-24T21:03:18.833Z,5.25
2022-08-24T21:05:47.547Z,6.00
2022-08-24T21:08:14.853Z,5.38
2022-08-24T21:10:42.492Z,5.35
2022-08-24T21:13:10.281Z,5.38
2022-08-24T21:15:39.470Z,5.40
2022-08-24T21:18:06.857Z,4.70
2022-08-24T21:20:34.619Z,5.38
2022-08-24T21:23:01.943Z,5.53
2022-08-24T21:25:29.758Z,5.90
2022-08-24T21:27:59.608Z,5.82
2022-08-24T21:30:27.123Z,5.30
2022-08-24T21:33:12.980Z,5.75
2022-08-24T21:35:42.695Z,5.70
2022-08-24T21:38:11.366Z,5.80
2022-08-24T21:40:38.604Z,5.78
2022-08-24T21:43:09.303Z,5.22
2022-08-24T21:45:42.566Z,5.97
2022-08-24T21:48:12.979Z,5.50
2022-08-24T21:50:40.274Z,6.53
2022-08-24T21:53:08.081Z,5.80
2022-08-24T21:55:35.783Z,5.32
2022-08-24T21:58:03.136Z,5.45
2022-08-24T22:00:30.661Z,5.65
2022-08-24T22:02:57.972Z,5.95
2022-08-24T22:05:25.298Z,5.25
2022-08-24T22:07:52.501Z,5.70
2022-08-24T22:10:19.984Z,5.63
2022-08-24T22:12:47.201Z,5.15
2022-08-24T22:15:18.615Z,5.10
2022-08-24T22:17:52.875Z,5.30
2022-08-24T22:20:23.368Z,5.50
2022-08-24T22:22:51.198Z,4.95
2022-08-24T22:25:18.617Z,5.38
2022-08-24T22:27:46.741Z,5.03
2022-08-24T22:30:16.986Z,5.38
2022-08-24T22:32:45.574Z,5.45
2022-08-24T22:35:13.190Z,5.25
2022-08-24T22:37:42.936Z,5.03
2022-08-24T22:40:12.654Z,5.35
2022-08-24T22:42:40.571Z,4.90
2022-08-24T22:45:09.309Z,5.00
2022-08-24T22:47:37.321Z,5.60
2022-08-24T22:50:06.505Z,5.28
2022-08-24T22:52:34.216Z,4.88
2022-08-24T22:55:01.759Z,4.68
2022-08-24T22:57:30.250Z,4.95
2022-08-24T22:59:57.967Z,4.80
2022-08-24T23:02:25.314Z,5.40
2022-08-24T23:04:53.112Z,4.88
2022-08-24T23:07:21.056Z,5.32
2022-08-24T23:09:48.799Z,5.07
2022-08-24T23:12:22.392Z,5.07
2022-08-24T23:14:51.187Z,4.97
2022-08-24T23:17:19.705Z,5.32
2022-08-24T23:20:05.394Z,5.38
2022-08-24T23:22:36.316Z,5.97
2022-08-24T23:25:05.059Z,5.47
2022-08-24T23:27:37.925Z,5.18
2022-08-24T23:30:09.884Z,4.88
2022-08-24T23:32:37.693Z,5.28
2022-08-24T23:35:06.002Z,5.78
2022-08-24T23:37:33.430Z,5.85
2022-08-24T23:40:00.893Z,4.93
2022-08-24T23:42:28.176Z,5.78
2022-08-24T23:44:55.468Z,5.05
2022-08-24T23:47:22.815Z,5.20
2022-08-24T23:49:50.994Z,5.22
2022-08-24T23:52:27.207Z,5.50
2022-08-24T23:55:18.233Z,5.40
2022-08-24T23:57:44.652Z,6.30
